sensor_id;sensor_type;location;lat;lon;timestamp;P1;durP1;ratioP1;P2;durP2;ratioP2
13872;SDS011;7006;51.494;11.964;2024-03-08T00:01:11;42.87;;;27.13;;
13872;SDS011;7006;51.494;11.964;2024-03-08T00:03:43;39.17;;;26.30;;
13872;SDS011;7006;51.494;11.964;2024-03-08T00:06:12;46.03;;;27.73;;
13872;SDS011;7006;51.494;11.964;2024-03-08T00:08:41;43.57;;;28.10;;
13872;SDS011;7006;51.494;11.964;2024-03-08T00:11:09;42.57;;;27.10;;
13872;SDS011;7006;51.494;11.964;2024-03-08T00:13:37;41.47;;;27.07;;
13872;SDS011;7006;51.494;11.964;2024-03-08T00:16:05;42.97;;;28.10;;
13872;SDS011;7006;51.494;11.964;2024-03-08T00:18:34;44.37;;;29.07;;
13872;SDS011;7006;51.494;11.964;2024-03-08T00:21:05;42.33;;;27.00;;
13872;SDS011;7006;51.494;11.964;2024-03-08T00:23:34;41.80;;;27.50;;
13872;SDS011;7006;51.494;11.964;2024-03-08T00:26:02;41.50;;;27.00;;
13872;SDS011;7006;51.494;11.964;2024-03-08T00:28:31;44.87;;;26.50;;
13872;SDS011;7006;51.494;11.964;2024-03-08T00:30:59;45.00;;;29.97;;
13872;SDS011;7006;51.494;11.964;2024-03-08T00:33:28;45.67;;;27.57;;
13872;SDS011;7006;51.494;11.964;2024-03-08T00:35:56;41.53;;;28.10;;
13872;SDS011;7006;51.494;11.964;2024-03-08T00:38:26;43.03;;;27.70;;
13872;SDS011;7006;51.494;11.964;2024-03-08T00:40:55;40.30;;;26.10;;
13872;SDS011;7006;51.494;11.964;2024-03-08T00:43:23;39.70;;;27.13;;
13872;SDS011;7006;51.494;11.964;2024-03-08T00:45:51;43.63;;;27.37;;
13872;SDS011;7006;51.494;11.964;2024-03-08T00:48:19;41.77;;;27.63;;
13872;SDS011;7006;51.494;11.964;2024-03-08T00:50:48;44.87;;;28.20;;
13872;SDS011;7006;51.494;11.964;2024-03-08T00:53:16;40.30;;;26.73;;
13872;SDS011;7006;51.494;11.964;2024-03-08T00:55:47;39.17;;;26.73;;
13872;SDS011;7006;51.494;11.964;2024-03-08T00:58:15;39.63;;;26.03;;
13872;SDS011;7006;51.494;11.964;2024-03-08T01:00:46;42.73;;;27.00;;
13872;SDS011;7006;51.494;11.964;2024-03-08T01:03:14;40.03;;;25.57;;
13872;SDS011;7006;51.494;11.964;2024-03-08T01:05:43;37.83;;;25.27;;
13872;SDS011;7006;51.494;11.964;2024-03-08T01:08:11;43.80;;;26.83;;
13872;SDS011;7006;51.494;11.964;2024-03-08T01:10:39;41.40;;;25.87;;
13872;SDS011;7006;51.494;11.964;2024-03-08T01:13:10;41.43;;;26.00;;
13872;SDS011;7006;51.494;11.964;2024-03-08T01:15:38;44.30;;;27.87;;
13872;SDS011;7006;51.494;11.964;2024-03-08T01:18:07;42.23;;;26.90;;
13872;SDS011;7006;51.494;11.964;2024-03-08T01:20:35;44.60;;;27.30;;
13872;SDS011;7006;51.494;11.964;2024-03-08T01:23:05;42.90;;;26.33;;
13872;SDS011;7006;51.494;11.964;2024-03-08T01:25:33;41.67;;;27.27;;
13872;SDS011;7006;51.494;11.964;2024-03-08T01:28:01;43.30;;;25.90;;
13872;SDS011;7006;51.494;11.964;2024-03-08T01:30:32;48.97;;;28.00;;
13872;SDS011;7006;51.494;11.964;2024-03-08T01:33:02;42.43;;;25.90;;
13872;SDS011;7006;51.494;11.964;2024-03-08T01:35:31;42.10;;;26.47;;
13872;SDS011;7006;51.494;11.964;2024-03-08T01:37:59;42.40;;;25.10;;
13872;SDS011;7006;51.494;11.964;2024-03-08T01:40:30;42.60;;;25.53;;
13872;SDS011;7006;51.494;11.964;2024-03-08T01:45:47;40.83;;;26.03;;
13872;SDS011;7006;51.494;11.964;2024-03-08T01:48:16;44.90;;;26.73;;
13872;SDS011;7006;51.494;11.964;2024-03-08T01:50:44;40.53;;;25.60;;
13872;SDS011;7006;51.494;11.964;2024-03-08T01:53:14;42.77;;;27.03;;
13872;SDS011;7006;51.494;11.964;2024-03-08T01:55:42;48.93;;;27.90;;
13872;SDS011;7006;51.494;11.964;2024-03-08T01:58:12;40.70;;;27.50;;
13872;SDS011;7006;51.494;11.964;2024-03-08T02:00:41;41.63;;;26.43;;
13872;SDS011;7006;51.494;11.964;2024-03-08T02:03:12;51.00;;;26.70;;
13872;SDS011;7006;51.494;11.964;2024-03-08T02:05:41;44.73;;;27.60;;
13872;SDS011;7006;51.494;11.964;2024-03-08T02:08:09;41.80;;;26.20;;
13872;SDS011;7006;51.494;11.964;2024-03-08T02:10:39;40.47;;;25.70;;
13872;SDS011;7006;51.494;11.964;2024-03-08T02:13:08;43.60;;;27.17;;
13872;SDS011;7006;51.494;11.964;2024-03-08T02:15:52;43.80;;;27.67;;
13872;SDS011;7006;51.494;11.964;2024-03-08T02:18:23;41.30;;;25.10;;
13872;SDS011;7006;51.494;11.964;2024-03-08T02:20:54;40.93;;;26.53;;
13872;SDS011;7006;51.494;11.964;2024-03-08T02:23:23;44.20;;;26.23;;
13872;SDS011;7006;51.494;11.964;2024-03-08T02:25:52;40.43;;;26.67;;
13872;SDS011;7006;51.494;11.964;2024-03-08T02:28:21;42.80;;;25.90;;
13872;SDS011;7006;51.494;11.964;2024-03-08T02:30:50;46.03;;;27.90;;
13872;SDS011;7006;51.494;11.964;2024-03-08T02:33:19;42.17;;;26.03;;
13872;SDS011;7006;51.494;11.964;2024-03-08T02:35:48;43.53;;;25.53;;
13872;SDS011;7006;51.494;11.964;2024-03-08T02:38:20;38.30;;;24.10;;
13872;SDS011;7006;51.494;11.964;2024-03-08T02:40:50;42.90;;;25.97;;
13872;SDS011;7006;51.494;11.964;2024-03-08T02:43:19;40.00;;;26.40;;
13872;SDS011;7006;51.494;11.964;2024-03-08T02:45:49;48.03;;;27.40;;
13872;SDS011;7006;51.494;11.964;2024-03-08T02:48:18;50.27;;;27.30;;
13872;SDS011;7006;51.494;11.964;2024-03-08T02:50:46;43.93;;;25.40;;
13872;SDS011;7006;51.494;11.964;2024-03-08T02:53:16;43.47;;;27.33;;
13872;SDS011;7006;51.494;11.964;2024-03-08T02:55:47;42.43;;;24.20;;
13872;SDS011;7006;51.494;11.964;2024-03-08T02:58:15;41.80;;;24.70;;
13872;SDS011;7006;51.494;11.964;2024-03-08T03:00:43;43.63;;;25.93;;
13872;SDS011;7006;51.494;11.964;2024-03-08T03:03:12;42.17;;;25.30;;
13872;SDS011;7006;51.494;11.964;2024-03-08T03:05:40;41.17;;;25.40;;
13872;SDS011;7006;51.494;11.964;2024-03-08T03:08:09;44.93;;;26.60;;
13872;SDS011;7006;51.494;11.964;2024-03-08T03:10:38;41.67;;;26.13;;
13872;SDS011;7006;51.494;11.964;2024-03-08T03:13:09;44.67;;;26.17;;
13872;SDS011;7006;51.494;11.964;2024-03-08T03:15:37;44.60;;;25.13;;
13872;SDS011;7006;51.494;11.964;2024-03-08T03:18:07;41.93;;;25.07;;
13872;SDS011;7006;51.494;11.964;2024-03-08T03:20:36;41.87;;;24.87;;
13872;SDS011;7006;51.494;11.964;2024-03-08T03:23:05;48.17;;;27.13;;
13872;SDS011;7006;51.494;11.964;2024-03-08T03:25:34;42.37;;;24.40;;
13872;SDS011;7006;51.494;11.964;2024-03-08T03:28:04;44.10;;;24.00;;
13872;SDS011;7006;51.494;11.964;2024-03-08T03:30:35;40.37;;;24.10;;
13872;SDS011;7006;51.494;11.964;2024-03-08T03:33:04;39.57;;;24.90;;
13872;SDS011;7006;51.494;11.964;2024-03-08T03:35:32;45.50;;;25.67;;
13872;SDS011;7006;51.494;11.964;2024-03-08T03:38:01;44.10;;;24.93;;
13872;SDS011;7006;51.494;11.964;2024-03-08T03:40:31;43.00;;;26.03;;
13872;SDS011;7006;51.494;11.964;2024-03-08T03:43:00;41.70;;;24.23;;
13872;SDS011;7006;51.494;11.964;2024-03-08T03:45:28;39.97;;;23.97;;
13872;SDS011;7006;51.494;11.964;2024-03-08T03:48:02;43.10;;;24.83;;
13872;SDS011;7006;51.494;11.964;2024-03-08T03:50:31;43.70;;;26.20;;
13872;SDS011;7006;51.494;11.964;2024-03-08T03:53:00;40.67;;;25.10;;
13872;SDS011;7006;51.494;11.964;2024-03-08T03:55:29;43.43;;;26.00;;
13872;SDS011;7006;51.494;11.964;2024-03-08T03:57:57;39.90;;;23.97;;
13872;SDS011;7006;51.494;11.964;2024-03-08T04:00:26;44.10;;;24.90;;
13872;SDS011;7006;51.494;11.964;2024-03-08T04:02:54;44.00;;;24.77;;
13872;SDS011;7006;51.494;11.964;2024-03-08T04:05:28;42.50;;;24.90;;
13872;SDS011;7006;51.494;11.964;2024-03-08T04:07:56;41.30;;;24.17;;
13872;SDS011;7006;51.494;11.964;2024-03-08T04:10:25;41.77;;;24.07;;
13872;SDS011;7006;51.494;11.964;2024-03-08T04:12:53;42.93;;;25.17;;
13872;SDS011;7006;51.494;11.964;2024-03-08T04:15:21;42.50;;;25.20;;
13872;SDS011;7006;51.494;11.964;2024-03-08T04:17:50;43.83;;;24.50;;
13872;SDS011;7006;51.494;11.964;2024-03-08T04:20:18;46.87;;;24.90;;
13872;SDS011;7006;51.494;11.964;2024-03-08T04:22:49;44.30;;;25.40;;
13872;SDS011;7006;51.494;11.964;2024-03-08T04:25:17;43.00;;;25.73;;
13872;SDS011;7006;51.494;11.964;2024-03-08T04:27:46;46.33;;;25.00;;
13872;SDS011;7006;51.494;11.964;2024-03-08T04:30:14;44.73;;;24.90;;
13872;SDS011;7006;51.494;11.964;2024-03-08T04:32:43;42.37;;;25.00;;
13872;SDS011;7006;51.494;11.964;2024-03-08T04:35:11;46.10;;;26.03;;
13872;SDS011;7006;51.494;11.964;2024-03-08T04:37:40;46.07;;;27.50;;
13872;SDS011;7006;51.494;11.964;2024-03-08T04:40:12;38.80;;;23.57;;
13872;SDS011;7006;51.494;11.964;2024-03-08T04:42:41;41.30;;;24.77;;
13872;SDS011;7006;51.494;11.964;2024-03-08T04:45:10;43.80;;;26.20;;
13872;SDS011;7006;51.494;11.964;2024-03-08T04:47:39;42.80;;;26.10;;
13872;SDS011;7006;51.494;11.964;2024-03-08T04:50:07;42.60;;;25.30;;
13872;SDS011;7006;51.494;11.964;2024-03-08T04:52:36;43.00;;;25.23;;
13872;SDS011;7006;51.494;11.964;2024-03-08T04:55:05;44.80;;;26.47;;
13872;SDS011;7006;51.494;11.964;2024-03-08T04:57:37;47.03;;;27.80;;
13872;SDS011;7006;51.494;11.964;2024-03-08T05:00:07;47.57;;;26.70;;
13872;SDS011;7006;51.494;11.964;2024-03-08T05:02:36;47.77;;;27.10;;
13872;SDS011;7006;51.494;11.964;2024-03-08T05:05:06;46.77;;;28.00;;
13872;SDS011;7006;51.494;11.964;2024-03-08T05:07:36;57.50;;;29.53;;
13872;SDS011;7006;51.494;11.964;2024-03-08T05:10:05;47.73;;;27.70;;
13872;SDS011;7006;51.494;11.964;2024-03-08T05:12:37;45.47;;;28.07;;
13872;SDS011;7006;51.494;11.964;2024-03-08T05:15:06;49.27;;;28.07;;
13872;SDS011;7006;51.494;11.964;2024-03-08T05:17:35;48.50;;;26.57;;
13872;SDS011;7006;51.494;11.964;2024-03-08T05:20:05;44.57;;;27.07;;
13872;SDS011;7006;51.494;11.964;2024-03-08T05:22:37;52.60;;;27.50;;
13872;SDS011;7006;51.494;11.964;2024-03-08T05:25:05;46.23;;;28.70;;
13872;SDS011;7006;51.494;11.964;2024-03-08T05:27:38;49.17;;;27.20;;
13872;SDS011;7006;51.494;11.964;2024-03-08T05:30:06;47.47;;;26.90;;
13872;SDS011;7006;51.494;11.964;2024-03-08T05:32:39;46.70;;;27.73;;
13872;SDS011;7006;51.494;11.964;2024-03-08T05:35:09;52.40;;;29.80;;
13872;SDS011;7006;51.494;11.964;2024-03-08T05:37:37;47.17;;;28.60;;
13872;SDS011;7006;51.494;11.964;2024-03-08T05:40:06;48.73;;;27.07;;
13872;SDS011;7006;51.494;11.964;2024-03-08T05:42:39;45.30;;;27.13;;
13872;SDS011;7006;51.494;11.964;2024-03-08T05:45:07;51.97;;;27.20;;
13872;SDS011;7006;51.494;11.964;2024-03-08T05:47:36;49.77;;;26.97;;
13872;SDS011;7006;51.494;11.964;2024-03-08T05:50:05;45.33;;;26.60;;
13872;SDS011;7006;51.494;11.964;2024-03-08T05:52:36;49.13;;;28.87;;
13872;SDS011;7006;51.494;11.964;2024-03-08T05:55:05;48.43;;;27.00;;
13872;SDS011;7006;51.494;11.964;2024-03-08T05:57:34;45.00;;;26.57;;
13872;SDS011;7006;51.494;11.964;2024-03-08T06:00:08;49.87;;;27.67;;
13872;SDS011;7006;51.494;11.964;2024-03-08T06:02:40;47.10;;;26.07;;
13872;SDS011;7006;51.494;11.964;2024-03-08T06:05:09;49.63;;;25.30;;
13872;SDS011;7006;51.494;11.964;2024-03-08T06:07:37;47.03;;;26.80;;
13872;SDS011;7006;51.494;11.964;2024-03-08T06:10:07;40.87;;;26.60;;
13872;SDS011;7006;51.494;11.964;2024-03-08T06:12:37;46.23;;;26.40;;
13872;SDS011;7006;51.494;11.964;2024-03-08T06:15:09;47.67;;;27.20;;
13872;SDS011;7006;51.494;11.964;2024-03-08T06:17:39;47.80;;;26.87;;
13872;SDS011;7006;51.494;11.964;2024-03-08T06:20:08;44.33;;;27.20;;
13872;SDS011;7006;51.494;11.964;2024-03-08T06:22:38;51.13;;;29.03;;
13872;SDS011;7006;51.494;11.964;2024-03-08T06:25:07;48.80;;;27.40;;
13872;SDS011;7006;51.494;11.964;2024-03-08T06:27:36;43.47;;;25.77;;
13872;SDS011;7006;51.494;11.964;2024-03-08T06:30:05;47.50;;;27.17;;
13872;SDS011;7006;51.494;11.964;2024-03-08T06:32:37;48.67;;;27.27;;
13872;SDS011;7006;51.494;11.964;2024-03-08T06:35:08;47.53;;;28.10;;
13872;SDS011;7006;51.494;11.964;2024-03-08T06:37:37;45.17;;;27.17;;
13872;SDS011;7006;51.494;11.964;2024-03-08T06:40:07;47.27;;;28.77;;
13872;SDS011;7006;51.494;11.964;2024-03-08T06:42:38;51.93;;;27.97;;
13872;SDS011;7006;51.494;11.964;2024-03-08T06:45:08;45.90;;;26.77;;
13872;SDS011;7006;51.494;11.964;2024-03-08T06:47:46;51.73;;;27.20;;
13872;SDS011;7006;51.494;11.964;2024-03-08T06:50:15;43.80;;;27.13;;
13872;SDS011;7006;51.494;11.964;2024-03-08T06:52:44;43.90;;;27.83;;
13872;SDS011;7006;51.494;11.964;2024-03-08T06:55:16;44.90;;;26.00;;
13872;SDS011;7006;51.494;11.964;2024-03-08T06:57:44;46.00;;;27.77;;
13872;SDS011;7006;51.494;11.964;2024-03-08T07:00:12;44.83;;;27.60;;
13872;SDS011;7006;51.494;11.964;2024-03-08T07:02:43;42.30;;;27.17;;
13872;SDS011;7006;51.494;11.964;2024-03-08T07:05:17;45.83;;;29.30;;
13872;SDS011;7006;51.494;11.964;2024-03-08T07:07:45;42.97;;;27.70;;
13872;SDS011;7006;51.494;11.964;2024-03-08T07:10:14;40.97;;;27.60;;
13872;SDS011;7006;51.494;11.964;2024-03-08T07:12:42;47.83;;;28.40;;
13872;SDS011;7006;51.494;11.964;2024-03-08T07:15:11;44.60;;;28.83;;
13872;SDS011;7006;51.494;11.964;2024-03-08T07:17:41;49.03;;;28.47;;
13872;SDS011;7006;51.494;11.964;2024-03-08T07:20:10;40.50;;;29.20;;
13872;SDS011;7006;51.494;11.964;2024-03-08T07:22:43;41.90;;;28.47;;
13872;SDS011;7006;51.494;11.964;2024-03-08T07:25:12;43.47;;;29.67;;
13872;SDS011;7006;51.494;11.964;2024-03-08T07:27:47;43.80;;;28.60;;
13872;SDS011;7006;51.494;11.964;2024-03-08T07:30:16;49.70;;;27.60;;
13872;SDS011;7006;51.494;11.964;2024-03-08T07:32:57;44.83;;;28.10;;
13872;SDS011;7006;51.494;11.964;2024-03-08T07:35:27;38.83;;;27.40;;
13872;SDS011;7006;51.494;11.964;2024-03-08T07:37:58;44.90;;;28.57;;
13872;SDS011;7006;51.494;11.964;2024-03-08T07:40:27;46.87;;;30.00;;
13872;SDS011;7006;51.494;11.964;2024-03-08T07:42:55;46.63;;;30.20;;
13872;SDS011;7006;51.494;11.964;2024-03-08T07:45:27;47.70;;;28.53;;
13872;SDS011;7006;51.494;11.964;2024-03-08T07:47:55;42.70;;;30.07;;
13872;SDS011;7006;51.494;11.964;2024-03-08T07:50:23;46.90;;;31.57;;
13872;SDS011;7006;51.494;11.964;2024-03-08T07:52:52;41.93;;;29.80;;
13872;SDS011;7006;51.494;11.964;2024-03-08T07:55:22;41.03;;;29.37;;
13872;SDS011;7006;51.494;11.964;2024-03-08T07:57:51;41.63;;;30.13;;
13872;SDS011;7006;51.494;11.964;2024-03-08T08:00:20;41.67;;;29.67;;
13872;SDS011;7006;51.494;11.964;2024-03-08T08:02:49;39.37;;;29.03;;
13872;SDS011;7006;51.494;11.964;2024-03-08T08:05:17;43.80;;;30.20;;
13872;SDS011;7006;51.494;11.964;2024-03-08T08:07:45;41.93;;;30.27;;
13872;SDS011;7006;51.494;11.964;2024-03-08T08:10:14;41.03;;;30.23;;
13872;SDS011;7006;51.494;11.964;2024-03-08T08:12:49;46.53;;;29.47;;
13872;SDS011;7006;51.494;11.964;2024-03-08T08:15:17;42.47;;;29.73;;
13872;SDS011;7006;51.494;11.964;2024-03-08T08:17:46;46.30;;;30.17;;
13872;SDS011;7006;51.494;11.964;2024-03-08T08:20:14;43.70;;;30.77;;
13872;SDS011;7006;51.494;11.964;2024-03-08T08:22:43;38.70;;;27.87;;
13872;SDS011;7006;51.494;11.964;2024-03-08T08:25:13;41.20;;;29.00;;
13872;SDS011;7006;51.494;11.964;2024-03-08T08:27:45;39.73;;;28.20;;
13872;SDS011;7006;51.494;11.964;2024-03-08T08:30:16;37.60;;;28.90;;
13872;SDS011;7006;51.494;11.964;2024-03-08T08:32:45;40.60;;;28.70;;
13872;SDS011;7006;51.494;11.964;2024-03-08T08:35:14;43.67;;;30.07;;
13872;SDS011;7006;51.494;11.964;2024-03-08T08:37:44;38.10;;;28.63;;
13872;SDS011;7006;51.494;11.964;2024-03-08T08:40:16;43.00;;;29.83;;
13872;SDS011;7006;51.494;11.964;2024-03-08T08:42:47;44.07;;;29.23;;
13872;SDS011;7006;51.494;11.964;2024-03-08T08:45:18;41.00;;;30.00;;
13872;SDS011;7006;51.494;11.964;2024-03-08T08:47:47;41.43;;;28.80;;
13872;SDS011;7006;51.494;11.964;2024-03-08T08:50:15;42.03;;;31.07;;
13872;SDS011;7006;51.494;11.964;2024-03-08T08:52:48;39.03;;;29.57;;
13872;SDS011;7006;51.494;11.964;2024-03-08T08:55:16;43.90;;;31.63;;
13872;SDS011;7006;51.494;11.964;2024-03-08T08:57:46;41.03;;;32.00;;
13872;SDS011;7006;51.494;11.964;2024-03-08T09:00:18;43.67;;;32.27;;
13872;SDS011;7006;51.494;11.964;2024-03-08T09:02:49;38.00;;;30.00;;
13872;SDS011;7006;51.494;11.964;2024-03-08T09:05:20;41.50;;;31.40;;
13872;SDS011;7006;51.494;11.964;2024-03-08T09:07:49;42.87;;;31.90;;
13872;SDS011;7006;51.494;11.964;2024-03-08T09:10:18;40.60;;;29.70;;
13872;SDS011;7006;51.494;11.964;2024-03-08T09:12:46;41.17;;;31.03;;
13872;SDS011;7006;51.494;11.964;2024-03-08T09:15:15;41.40;;;30.43;;
13872;SDS011;7006;51.494;11.964;2024-03-08T09:17:46;38.30;;;30.60;;
13872;SDS011;7006;51.494;11.964;2024-03-08T09:20:14;39.33;;;30.90;;
13872;SDS011;7006;51.494;11.964;2024-03-08T09:22:43;44.47;;;31.00;;
13872;SDS011;7006;51.494;11.964;2024-03-08T09:25:11;42.90;;;32.20;;
13872;SDS011;7006;51.494;11.964;2024-03-08T09:27:40;40.20;;;30.30;;
13872;SDS011;7006;51.494;11.964;2024-03-08T09:30:08;37.17;;;28.27;;
13872;SDS011;7006;51.494;11.964;2024-03-08T09:32:41;42.43;;;32.00;;
13872;SDS011;7006;51.494;11.964;2024-03-08T09:35:09;39.50;;;30.37;;
13872;SDS011;7006;51.494;11.964;2024-03-08T09:37:38;38.53;;;29.87;;
13872;SDS011;7006;51.494;11.964;2024-03-08T09:40:06;35.77;;;29.70;;
13872;SDS011;7006;51.494;11.964;2024-03-08T09:42:40;39.50;;;30.50;;
13872;SDS011;7006;51.494;11.964;2024-03-08T09:45:09;40.90;;;30.20;;
13872;SDS011;7006;51.494;11.964;2024-03-08T09:47:43;40.53;;;29.93;;
13872;SDS011;7006;51.494;11.964;2024-03-08T09:50:14;42.50;;;30.30;;
13872;SDS011;7006;51.494;11.964;2024-03-08T09:52:43;40.23;;;31.10;;
13872;SDS011;7006;51.494;11.964;2024-03-08T09:55:15;37.40;;;30.53;;
13872;SDS011;7006;51.494;11.964;2024-03-08T09:57:48;37.83;;;31.03;;
13872;SDS011;7006;51.494;11.964;2024-03-08T10:00:29;39.90;;;30.30;;
13872;SDS011;7006;51.494;11.964;2024-03-08T10:03:02;39.00;;;30.50;;
13872;SDS011;7006;51.494;11.964;2024-03-08T10:05:31;40.70;;;30.57;;
13872;SDS011;7006;51.494;11.964;2024-03-08T10:08:00;43.33;;;31.83;;
13872;SDS011;7006;51.494;11.964;2024-03-08T10:10:28;40.10;;;30.67;;
13872;SDS011;7006;51.494;11.964;2024-03-08T10:12:56;40.03;;;30.60;;
13872;SDS011;7006;51.494;11.964;2024-03-08T10:15:26;42.07;;;31.17;;
13872;SDS011;7006;51.494;11.964;2024-03-08T10:17:58;41.97;;;30.70;;
13872;SDS011;7006;51.494;11.964;2024-03-08T10:20:30;41.33;;;31.50;;
13872;SDS011;7006;51.494;11.964;2024-03-08T10:22:59;40.17;;;29.97;;
13872;SDS011;7006;51.494;11.964;2024-03-08T10:25:28;37.97;;;29.77;;
13872;SDS011;7006;51.494;11.964;2024-03-08T10:27:56;39.60;;;30.77;;
13872;SDS011;7006;51.494;11.964;2024-03-08T10:30:25;39.50;;;30.77;;
13872;SDS011;7006;51.494;11.964;2024-03-08T10:32:54;43.07;;;30.27;;
13872;SDS011;7006;51.494;11.964;2024-03-08T10:35:23;37.10;;;29.87;;
13872;SDS011;7006;51.494;11.964;2024-03-08T10:37:54;38.37;;;28.97;;
13872;SDS011;7006;51.494;11.964;2024-03-08T10:40:28;39.33;;;30.47;;
13872;SDS011;7006;51.494;11.964;2024-03-08T10:42:58;41.23;;;30.60;;
13872;SDS011;7006;51.494;11.964;2024-03-08T10:45:30;36.73;;;29.20;;
13872;SDS011;7006;51.494;11.964;2024-03-08T10:48:03;43.00;;;30.20;;
13872;SDS011;7006;51.494;11.964;2024-03-08T10:50:36;41.17;;;29.90;;
13872;SDS011;7006;51.494;11.964;2024-03-08T10:53:08;39.20;;;28.47;;
13872;SDS011;7006;51.494;11.964;2024-03-08T10:55:37;39.53;;;30.50;;
13872;SDS011;7006;51.494;11.964;2024-03-08T10:58:07;40.07;;;30.10;;
13872;SDS011;7006;51.494;11.964;2024-03-08T11:00:35;48.13;;;29.90;;
13872;SDS011;7006;51.494;11.964;2024-03-08T11:03:04;35.23;;;28.27;;
13872;SDS011;7006;51.494;11.964;2024-03-08T11:05:35;39.27;;;28.93;;
13872;SDS011;7006;51.494;11.964;2024-03-08T11:08:17;34.80;;;27.53;;
13872;SDS011;7006;51.494;11.964;2024-03-08T11:10:49;38.83;;;27.63;;
13872;SDS011;7006;51.494;11.964;2024-03-08T11:13:33;37.30;;;27.40;;
13872;SDS011;7006;51.494;11.964;2024-03-08T11:16:01;39.20;;;29.87;;
13872;SDS011;7006;51.494;11.964;2024-03-08T11:18:32;39.33;;;27.57;;
13872;SDS011;7006;51.494;11.964;2024-03-08T11:21:02;38.80;;;27.83;;
13872;SDS011;7006;51.494;11.964;2024-03-08T11:23:34;35.73;;;27.03;;
13872;SDS011;7006;51.494;11.964;2024-03-08T11:26:02;35.17;;;27.53;;
13872;SDS011;7006;51.494;11.964;2024-03-08T11:28:32;38.20;;;26.47;;
13872;SDS011;7006;51.494;11.964;2024-03-08T11:33:50;32.27;;;24.90;;
13872;SDS011;7006;51.494;11.964;2024-03-08T11:36:20;37.73;;;27.20;;
13872;SDS011;7006;51.494;11.964;2024-03-08T11:38:52;33.20;;;24.40;;
13872;SDS011;7006;51.494;11.964;2024-03-08T11:41:21;32.57;;;23.87;;
13872;SDS011;7006;51.494;11.964;2024-03-08T11:44:01;32.17;;;25.30;;
13872;SDS011;7006;51.494;11.964;2024-03-08T11:46:33;36.90;;;25.80;;
13872;SDS011;7006;51.494;11.964;2024-03-08T11:49:02;33.13;;;24.70;;
13872;SDS011;7006;51.494;11.964;2024-03-08T11:51:30;33.30;;;24.77;;
13872;SDS011;7006;51.494;11.964;2024-03-08T11:54:02;32.53;;;23.40;;
13872;SDS011;7006;51.494;11.964;2024-03-08T11:56:31;32.30;;;22.23;;
13872;SDS011;7006;51.494;11.964;2024-03-08T11:59:00;29.83;;;21.70;;
13872;SDS011;7006;51.494;11.964;2024-03-08T12:01:28;30.10;;;23.10;;
13872;SDS011;7006;51.494;11.964;2024-03-08T12:03:56;33.30;;;24.67;;
13872;SDS011;7006;51.494;11.964;2024-03-08T12:06:27;31.47;;;23.50;;
13872;SDS011;7006;51.494;11.964;2024-03-08T12:08:55;31.20;;;22.50;;
13872;SDS011;7006;51.494;11.964;2024-03-08T12:11:25;33.00;;;24.80;;
13872;SDS011;7006;51.494;11.964;2024-03-08T12:13:54;37.37;;;24.90;;
13872;SDS011;7006;51.494;11.964;2024-03-08T12:16:23;31.37;;;23.70;;
13872;SDS011;7006;51.494;11.964;2024-03-08T12:18:52;34.37;;;24.47;;
13872;SDS011;7006;51.494;11.964;2024-03-08T12:21:21;33.07;;;25.07;;
13872;SDS011;7006;51.494;11.964;2024-03-08T12:24:01;31.17;;;23.43;;
13872;SDS011;7006;51.494;11.964;2024-03-08T12:26:36;29.47;;;22.93;;
13872;SDS011;7006;51.494;11.964;2024-03-08T12:29:16;33.67;;;23.97;;
13872;SDS011;7006;51.494;11.964;2024-03-08T12:31:47;30.70;;;22.77;;
13872;SDS011;7006;51.494;11.964;2024-03-08T12:34:16;32.23;;;22.73;;
13872;SDS011;7006;51.494;11.964;2024-03-08T12:36:45;34.50;;;24.50;;
13872;SDS011;7006;51.494;11.964;2024-03-08T12:39:15;31.77;;;23.63;;
13872;SDS011;7006;51.494;11.964;2024-03-08T12:41:50;33.70;;;25.00;;
13872;SDS011;7006;51.494;11.964;2024-03-08T12:44:20;35.47;;;25.97;;
13872;SDS011;7006;51.494;11.964;2024-03-08T12:46:50;34.53;;;23.30;;
13872;SDS011;7006;51.494;11.964;2024-03-08T12:49:18;32.40;;;24.40;;
13872;SDS011;7006;51.494;11.964;2024-03-08T12:51:47;32.57;;;25.27;;
13872;SDS011;7006;51.494;11.964;2024-03-08T12:54:17;34.80;;;25.20;;
13872;SDS011;7006;51.494;11.964;2024-03-08T12:56:50;35.20;;;26.93;;
13872;SDS011;7006;51.494;11.964;2024-03-08T12:59:20;40.10;;;26.27;;
13872;SDS011;7006;51.494;11.964;2024-03-08T13:01:49;35.10;;;26.40;;
13872;SDS011;7006;51.494;11.964;2024-03-08T13:04:18;35.70;;;25.77;;
13872;SDS011;7006;51.494;11.964;2024-03-08T13:06:47;32.13;;;25.57;;
13872;SDS011;7006;51.494;11.964;2024-03-08T13:09:15;34.57;;;25.93;;
13872;SDS011;7006;51.494;11.964;2024-03-08T13:11:45;37.03;;;27.83;;
13872;SDS011;7006;51.494;11.964;2024-03-08T13:14:15;36.70;;;26.53;;
13872;SDS011;7006;51.494;11.964;2024-03-08T13:16:44;36.53;;;26.70;;
13872;SDS011;7006;51.494;11.964;2024-03-08T13:19:13;38.37;;;27.33;;
13872;SDS011;7006;51.494;11.964;2024-03-08T13:21:41;32.67;;;26.10;;
13872;SDS011;7006;51.494;11.964;2024-03-08T13:24:14;35.07;;;26.80;;
13872;SDS011;7006;51.494;11.964;2024-03-08T13:26:44;37.23;;;27.90;;
13872;SDS011;7006;51.494;11.964;2024-03-08T13:29:12;35.87;;;25.60;;
13872;SDS011;7006;51.494;11.964;2024-03-08T13:31:43;36.40;;;26.93;;
13872;SDS011;7006;51.494;11.964;2024-03-08T13:34:08;38.17;;;28.03;;
13872;SDS011;7006;51.494;11.964;2024-03-08T13:36:36;36.00;;;29.70;;
13872;SDS011;7006;51.494;11.964;2024-03-08T13:39:09;35.63;;;28.20;;
13872;SDS011;7006;51.494;11.964;2024-03-08T13:41:40;39.80;;;29.30;;
13872;SDS011;7006;51.494;11.964;2024-03-08T13:44:10;36.97;;;28.20;;
13872;SDS011;7006;51.494;11.964;2024-03-08T13:46:38;36.70;;;25.17;;
13872;SDS011;7006;51.494;11.964;2024-03-08T13:49:11;38.37;;;28.47;;
13872;SDS011;7006;51.494;11.964;2024-03-08T13:51:40;38.33;;;28.87;;
13872;SDS011;7006;51.494;11.964;2024-03-08T13:54:08;37.10;;;26.73;;
13872;SDS011;7006;51.494;11.964;2024-03-08T13:56:36;38.03;;;27.33;;
13872;SDS011;7006;51.494;11.964;2024-03-08T13:59:04;36.70;;;26.60;;
13872;SDS011;7006;51.494;11.964;2024-03-08T14:01:34;36.10;;;26.40;;
13872;SDS011;7006;51.494;11.964;2024-03-08T14:04:02;35.60;;;26.90;;
13872;SDS011;7006;51.494;11.964;2024-03-08T14:06:36;34.47;;;26.93;;
13872;SDS011;7006;51.494;11.964;2024-03-08T14:09:04;36.07;;;26.30;;
13872;SDS011;7006;51.494;11.964;2024-03-08T14:11:33;38.77;;;26.60;;
13872;SDS011;7006;51.494;11.964;2024-03-08T14:14:01;36.47;;;26.33;;
13872;SDS011;7006;51.494;11.964;2024-03-08T14:16:29;34.27;;;26.50;;
13872;SDS011;7006;51.494;11.964;2024-03-08T14:18:57;34.63;;;25.77;;
13872;SDS011;7006;51.494;11.964;2024-03-08T14:21:31;34.50;;;25.47;;
13872;SDS011;7006;51.494;11.964;2024-03-08T14:24:02;34.50;;;25.70;;
13872;SDS011;7006;51.494;11.964;2024-03-08T14:26:34;34.50;;;26.00;;
13872;SDS011;7006;51.494;11.964;2024-03-08T14:29:03;32.50;;;26.33;;
13872;SDS011;7006;51.494;11.964;2024-03-08T14:31:35;36.83;;;26.33;;
13872;SDS011;7006;51.494;11.964;2024-03-08T14:34:03;34.77;;;25.30;;
13872;SDS011;7006;51.494;11.964;2024-03-08T14:36:32;36.90;;;25.53;;
13872;SDS011;7006;51.494;11.964;2024-03-08T14:39:03;33.60;;;22.17;;
13872;SDS011;7006;51.494;11.964;2024-03-08T14:41:34;32.60;;;24.47;;